Time;durP1;ratioP1;P1;durP2;ratioP2;P2;SDS_P1;SDS_P2;PMS_P1;PMS_P2;Temp;Humidity;BMP_temperature;BMP_pressure;BME280_temperature;BME280_humidity;BME280_pressure;Samples;Min_cycle;Max_cycle;Signal;HPM_P1;HPM_P2
2020/12/03 00:03:58;;;;;;;19.30;11.73;;;15.80;68.90;;;;;;10455860;28;20055;-57
2020/12/03 00:09:13;;;;;;;16.13;10.82;;;15.70;68.90;;;;;;10450732;28;20041;-58
2020/12/03 00:14:14;;;;;;;15.57;9.93;;;15.70;68.80;;;;;;10468827;28;20107;-57
2020/12/03 00:19:18;;;;;;;16.45;11.07;;;15.70;68.80;;;;;;10451827;28;20043;-57
2020/12/03 00:24:24;;;;;;;15.98;11.15;;;15.70;68.90;;;;;;10455600;28;20025;-58
2020/12/03 00:29:24;;;;;;;17.48;10.88;;;15.70;68.90;;;;;;10455722;28;20060;-57
2020/12/03 00:34:26;;;;;;;16.75;11.02;;;15.70;68.90;;;;;;10447948;28;20400;-58
2020/12/03 00:39:27;;;;;;;16.58;12.10;;;15.60;68.90;;;;;;10455255;28;20041;-58
2020/12/03 00:44:27;;;;;;;15.98;9.75;;;15.60;68.90;;;;;;10461065;28;20033;-57
2020/12/03 00:49:28;;;;;;;15.43;11.43;;;15.60;69.00;;;;;;10454398;28;20100;-57
2020/12/03 00:54:29;;;;;;;16.35;11.43;;;15.60;68.90;;;;;;10455022;28;20425;-57
2020/12/03 00:59:29;;;;;;;15.57;10.60;;;15.60;69.00;;;;;;10454981;28;20100;-56
2020/12/03 01:04:30;;;;;;;18.67;12.13;;;15.60;69.00;;;;;;10456166;28;20131;-57
2020/12/03 01:09:31;;;;;;;16.45;10.70;;;15.60;69.00;;;;;;10459177;28;20488;-57
2020/12/03 01:14:34;;;;;;;12.43;9.35;;;15.50;68.90;;;;;;10471042;28;20089;-58
2020/12/03 01:19:35;;;;;;;15.02;11.20;;;15.50;68.90;;;;;;10463022;28;20029;-58
2020/12/03 01:24:36;;;;;;;13.95;10.27;;;15.50;68.90;;;;;;10462795;28;20024;-58
2020/12/03 01:29:39;;;;;;;14.20;10.50;;;15.50;69.00;;;;;;10462378;28;20396;-57
2020/12/03 01:34:39;;;;;;;13.43;9.20;;;15.50;69.00;;;;;;10454728;28;20029;-58
2020/12/03 01:39:40;;;;;;;13.13;9.43;;;15.50;69.00;;;;;;10460264;28;20128;-55
2020/12/03 01:44:45;;;;;;;14.60;10.18;;;15.50;69.60;;;;;;10468226;28;20067;-56
2020/12/03 01:49:47;;;;;;;13.35;9.48;;;15.50;69.00;;;;;;10454167;28;20082;-57
2020/12/03 01:54:47;;;;;;;14.00;10.02;;;15.50;69.00;;;;;;10440897;28;20529;-57
2020/12/03 02:00:04;;;;;;;12.52;10.45;;;15.50;73.50;;;;;;10461452;28;20037;-57
2020/12/03 02:05:24;;;;;;;15.02;10.02;;;15.60;74.20;;;;;;10459472;28;20066;-57
2020/12/03 02:10:25;;;;;;;14.20;9.77;;;15.70;73.60;;;;;;10458561;28;20048;-58
2020/12/03 02:15:26;;;;;;;13.80;9.68;;;15.70;73.20;;;;;;10454009;28;20448;-57
2020/12/03 02:20:27;;;;;;;15.05;10.32;;;15.60;72.70;;;;;;10458555;28;20143;-57
2020/12/03 02:25:27;;;;;;;14.02;8.73;;;15.60;72.50;;;;;;10460821;28;20545;-57
2020/12/03 02:30:28;;;;;;;13.90;9.98;;;15.60;72.30;;;;;;10475699;28;20119;-58
2020/12/03 02:35:29;;;;;;;12.70;9.10;;;15.60;72.30;;;;;;10460244;28;20028;-57
2020/12/03 02:40:30;;;;;;;13.95;9.50;;;15.50;72.20;;;;;;10453246;28;20402;-56
2020/12/03 02:45:30;;;;;;;12.48;8.85;;;15.50;72.00;;;;;;10459964;28;20036;-58
2020/12/03 02:50:31;;;;;;;13.25;8.85;;;15.50;72.00;;;;;;10459551;28;20036;-57
2020/12/03 02:55:32;;;;;;;11.70;8.77;;;15.50;71.90;;;;;;10459474;28;20021;-57
2020/12/03 03:00:32;;;;;;;13.65;9.02;;;15.50;71.80;;;;;;10459227;28;20025;-57
2020/12/03 03:05:33;;;;;;;13.05;9.02;;;15.50;71.80;;;;;;10451060;28;20021;-58
2020/12/03 03:10:34;;;;;;;10.82;8.10;;;15.50;71.70;;;;;;10457437;28;20026;-57
2020/12/03 03:15:34;;;;;;;15.05;10.00;;;15.40;71.60;;;;;;10458418;28;20166;-56
2020/12/03 03:20:36;;;;;;;10.52;8.15;;;15.40;71.60;;;;;;10437087;28;20025;-57
2020/12/03 03:25:37;;;;;;;12.02;8.88;;;15.40;71.50;;;;;;10458025;28;20029;-58
2020/12/03 03:30:38;;;;;;;11.00;8.43;;;15.40;71.40;;;;;;10455130;28;20459;-58
2020/12/03 03:35:39;;;;;;;10.23;8.25;;;15.40;71.30;;;;;;10473185;28;20058;-58
2020/12/03 03:40:40;;;;;;;11.60;8.48;;;15.40;71.20;;;;;;10457529;28;20041;-58
2020/12/03 03:45:41;;;;;;;12.98;8.55;;;15.40;71.10;;;;;;10457397;28;20075;-57
2020/12/03 03:50:42;;;;;;;13.50;8.05;;;15.30;71.00;;;;;;10457242;28;20117;-57
2020/12/03 03:55:42;;;;;;;11.77;8.55;;;15.40;71.10;;;;;;10456250;28;20061;-57
2020/12/03 04:00:46;;;;;;;11.32;8.15;;;15.30;71.00;;;;;;10456617;28;20054;-57
2020/12/03 04:05:51;;;;;;;11.20;8.05;;;15.30;70.90;;;;;;10455400;28;20775;-57
2020/12/03 04:10:52;;;;;;;13.40;9.02;;;15.30;70.90;;;;;;10453957;28;20086;-57
2020/12/03 04:15:54;;;;;;;13.27;8.43;;;15.30;70.90;;;;;;10456399;28;20070;-57
2020/12/03 04:20:58;;;;;;;9.52;7.03;;;15.30;70.90;;;;;;10456193;28;20065;-57
2020/12/03 04:26:00;;;;;;;11.63;8.65;;;15.30;70.90;;;;;;10443545;28;20033;-57
2020/12/03 04:31:00;;;;;;;10.68;8.52;;;15.30;70.80;;;;;;10455623;28;20041;-57
2020/12/03 04:36:02;;;;;;;10.35;7.40;;;15.30;70.80;;;;;;10455625;28;20075;-57
2020/12/03 04:41:03;;;;;;;11.32;9.05;;;15.20;70.80;;;;;;10456777;28;20037;-57
2020/12/03 04:46:21;;;;;;;11.52;8.02;;;15.30;70.70;;;;;;10455461;28;20036;-58
2020/12/03 04:52:05;;;;;;;11.55;7.70;;;15.20;70.60;;;;;;10455592;28;20036;-58
2020/12/03 04:57:24;;;;;;;11.25;7.40;;;15.20;70.60;;;;;;10447878;28;20056;-57
2020/12/03 05:02:56;;;;;;;10.40;8.40;;;15.20;70.60;;;;;;10455142;28;20025;-58
2020/12/03 05:08:09;;;;;;;11.10;6.55;;;15.20;70.60;;;;;;10454757;28;20025;-57
2020/12/03 05:13:25;;;;;;;12.95;7.03;;;15.20;70.50;;;;;;10467825;28;20540;-58
2020/12/03 05:18:54;;;;;;;9.13;7.13;;;15.20;70.50;;;;;;10454124;28;20060;-57
2020/12/03 05:23:55;;;;;;;11.50;7.77;;;15.20;70.50;;;;;;10454729;28;20110;-57
2020/12/03 05:29:03;;;;;;;9.13;6.78;;;15.20;70.40;;;;;;10451591;28;20111;-58
2020/12/03 05:34:11;;;;;;;11.73;7.55;;;15.20;70.40;;;;;;10454480;28;20419;-57
2020/12/03 05:39:13;;;;;;;10.38;7.57;;;15.10;70.30;;;;;;10453829;28;20049;-57
2020/12/03 05:44:47;;;;;;;9.50;6.78;;;15.10;70.30;;;;;;10452183;28;20389;-57
2020/12/03 05:49:52;;;;;;;9.77;6.85;;;15.10;70.30;;;;;;10454231;28;20040;-57
2020/12/03 05:55:09;;;;;;;9.20;7.05;;;15.10;70.20;;;;;;10460732;28;20107;-57
2020/12/03 06:00:13;;;;;;;9.05;6.72;;;15.10;70.20;;;;;;10446518;28;20033;-57
2020/12/03 06:05:24;;;;;;;8.75;6.07;;;15.10;70.20;;;;;;10459280;28;20368;-57
2020/12/03 06:11:06;;;;;;;13.77;6.68;;;15.10;70.30;;;;;;10461124;28;20087;-57
2020/12/03 06:16:40;;;;;;;13.90;6.97;;;15.20;70.80;;;;;;10463656;28;20044;-55
2020/12/03 06:21:56;;;;;;;11.73;6.50;;;15.30;71.30;;;;;;10463775;28;20492;-57
2020/12/03 06:27:08;;;;;;;13.68;7.38;;;15.30;71.40;;;;;;10455353;28;20021;-54
2020/12/03 06:32:33;;;;;;;13.25;6.88;;;15.30;71.90;;;;;;10465882;28;20025;-56
2020/12/03 06:37:52;;;;;;;13.85;6.47;;;15.30;71.90;;;;;;10461275;28;20072;-57
2020/12/03 06:43:36;;;;;;;14.52;5.97;;;15.40;71.60;;;;;;10460873;28;20025;-56
2020/12/03 06:49:12;;;;;;;18.65;6.75;;;15.50;71.60;;;;;;10479089;28;20039;-57
2020/12/03 06:54:54;;;;;;;11.55;5.60;;;15.40;71.50;;;;;;10480954;28;20025;-58
2020/12/03 07:00:08;;;;;;;9.05;6.10;;;15.30;71.50;;;;;;10468770;28;20037;-57
2020/12/03 07:06:10;;;;;;;9.85;5.75;;;15.20;70.70;;;;;;10479881;28;20078;-58
2020/12/03 07:11:41;;;;;;;;;;;15.10;70.90;;;;;;10466212;28;20465;-57
2020/12/03 07:17:06;;;;;;;12.55;5.97;;;15.10;71.00;;;;;;10454970;28;20324;-57
2020/12/03 07:22:33;;;;;;;11.02;6.05;;;15.20;70.90;;;;;;10472150;28;20021;-57
2020/12/03 07:28:03;;;;;;;13.82;5.65;;;15.20;70.70;;;;;;10475173;28;20037;-56
2020/12/03 07:33:11;;;;;;;10.40;5.22;;;15.40;70.30;;;;;;10455100;28;20044;-56
2020/12/03 07:38:34;;;;;;;9.90;5.50;;;15.70;69.40;;;;;;10444158;28;20045;-57
2020/12/03 07:43:38;;;;;;;12.52;6.07;;;16.30;67.50;;;;;;10463806;28;20029;-57
2020/12/03 07:48:45;;;;;;;8.38;5.10;;;16.60;66.20;;;;;;10481811;28;20028;-56
2020/12/03 07:54:06;;;;;;;10.13;4.78;;;16.90;65.20;;;;;;10470777;28;20017;-54
2020/12/03 07:59:22;;;;;;;11.15;5.40;;;17.10;64.70;;;;;;10458379;28;20035;-56
2020/12/03 08:04:33;;;;;;;8.75;4.95;;;17.30;64.30;;;;;;10459569;28;20152;-56
2020/12/03 08:09:46;;;;;;;6.75;4.03;;;17.30;64.40;;;;;;10450399;28;20028;-56
2020/12/03 08:14:46;;;;;;;8.00;4.70;;;17.20;64.70;;;;;;10455332;28;20036;-57
2020/12/03 08:20:06;;;;;;;7.05;3.95;;;17.10;65.00;;;;;;10455762;28;20453;-57
2020/12/03 08:25:30;;;;;;;7.47;4.63;;;17.00;65.30;;;;;;10463781;28;20024;-57
2020/12/03 08:30:34;;;;;;;5.80;3.45;;;16.90;65.30;;;;;;10464159;28;20116;-57
2020/12/03 08:35:35;;;;;;;5.85;3.90;;;16.90;65.40;;;;;;10457193;28;20041;-56
2020/12/03 08:40:37;;;;;;;6.35;3.95;;;16.90;65.40;;;;;;10468328;28;20481;-57
2020/12/03 08:45:46;;;;;;;8.70;4.50;;;16.90;65.60;;;;;;10467783;28;20016;-57
2020/12/03 08:50:58;;;;;;;8.80;3.93;;;16.80;65.70;;;;;;10469467;28;20056;-57
2020/12/03 08:56:08;;;;;;;5.65;3.53;;;16.80;65.80;;;;;;10469050;28;20385;-56
2020/12/03 09:01:11;;;;;;;4.85;3.55;;;16.80;65.90;;;;;;10467519;28;20036;-57
2020/12/03 09:06:13;;;;;;;6.40;4.00;;;16.80;65.60;;;;;;10460567;28;20025;-57
2020/12/03 09:11:14;;;;;;;5.75;3.20;;;16.90;65.50;;;;;;10458030;28;20025;-56
2020/12/03 09:16:17;;;;;;;5.55;3.15;;;16.90;65.40;;;;;;10454493;28;20147;-57
2020/12/03 09:21:30;;;;;;;6.13;2.72;;;17.00;65.30;;;;;;10443603;28;20500;-56
2020/12/03 09:26:33;;;;;;;5.78;3.28;;;16.90;65.40;;;;;;10466335;28;20033;-57
2020/12/03 09:31:35;;;;;;;4.72;3.08;;;16.90;65.40;;;;;;10484521;28;20033;-56
2020/12/03 09:36:39;;;;;;;4.63;2.88;;;16.90;66.10;;;;;;10469628;28;20036;-57
2020/12/03 09:41:43;;;;;;;4.50;2.70;;;16.90;65.50;;;;;;10479606;28;20020;-57
2020/12/03 09:46:47;;;;;;;5.22;3.00;;;16.80;65.60;;;;;;10472264;28;20823;-57
2020/12/03 09:51:48;;;;;;;6.20;3.22;;;16.80;65.70;;;;;;10471177;28;20468;-57
2020/12/03 09:56:50;;;;;;;5.20;2.85;;;16.80;65.40;;;;;;10473766;28;20032;-56
2020/12/03 10:01:59;;;;;;;4.03;2.60;;;16.80;65.50;;;;;;10473088;28;20025;-57
2020/12/03 10:07:28;;;;;;;;;;;16.80;65.60;;;;;;10466525;28;20548;-57
2020/12/03 10:13:06;;;;;;;4.78;2.67;;;16.80;65.40;;;;;;10460261;28;19908;-57
2020/12/03 10:18:10;;;;;;;4.72;2.50;;;16.90;65.40;;;;;;10463403;28;20384;-57
2020/12/03 10:23:16;;;;;;;3.60;2.20;;;16.80;65.40;;;;;;10472937;28;20021;-58
2020/12/03 10:28:25;;;;;;;3.90;2.45;;;16.90;65.30;;;;;;10481572;28;20520;-58
2020/12/03 10:33:29;;;;;;;3.75;2.70;;;16.90;65.40;;;;;;10462836;28;20017;-58
2020/12/03 10:38:58;;;;;;;3.95;2.53;;;16.80;65.50;;;;;;10467107;28;20033;-58
2020/12/03 10:44:02;;;;;;;3.33;2.38;;;16.80;65.60;;;;;;10472340;28;20056;-58
2020/12/03 10:49:04;;;;;;;3.05;2.08;;;16.80;65.40;;;;;;10484402;28;20413;-57
2020/12/03 10:54:06;;;;;;;5.00;2.17;;;16.90;65.40;;;;;;10484378;28;20061;-58
2020/12/03 10:59:10;;;;;;;5.15;2.75;;;16.90;65.40;;;;;;10484599;28;20021;-57
2020/12/03 11:04:12;;;;;;;3.72;2.40;;;16.80;65.50;;;;;;10461522;28;20739;-58
2020/12/03 11:09:19;;;;;;;4.50;2.60;;;16.80;65.60;;;;;;10439237;28;20033;-57
2020/12/03 11:14:19;;;;;;;3.45;2.20;;;16.80;65.60;;;;;;10463928;28;20041;-58
2020/12/03 11:19:24;;;;;;;3.80;2.15;;;16.90;65.30;;;;;;10458769;28;20534;-57
2020/12/03 11:24:43;;;;;;;3.55;2.20;;;16.80;65.30;;;;;;10447050;28;20381;-57
2020/12/03 11:29:44;;;;;;;4.10;2.55;;;16.80;65.60;;;;;;10447114;28;20071;-58
2020/12/03 11:34:45;;;;;;;3.55;2.55;;;16.70;65.60;;;;;;10454141;28;20151;-57
2020/12/03 11:39:48;;;;;;;4.40;2.33;;;16.70;65.60;;;;;;10456636;28;20044;-58
2020/12/03 11:50:19;;;;;;;3.70;2.30;;;16.80;65.60;;;;;;10439071;28;20439;-57
2020/12/03 11:55:23;;;;;;;7.65;2.33;;;16.70;65.70;;;;;;10426760;28;20462;-57
2020/12/03 12:00:24;;;;;;;4.75;2.25;;;16.70;66.20;;;;;;10422611;28;20025;-56
2020/12/03 12:10:34;;;;;;;4.88;2.08;;;16.60;66.10;;;;;;10474506;28;20033;-58
2020/12/03 12:15:34;;;;;;;3.00;2.00;;;16.60;66.10;;;;;;10456163;28;20111;-56
2020/12/03 12:20:36;;;;;;;3.17;2.00;;;16.60;65.90;;;;;;10451304;28;20579;-57
2020/12/03 12:25:37;;;;;;;3.58;2.08;;;16.70;65.80;;;;;;10461823;28;20026;-58
2020/12/03 12:30:38;;;;;;;4.55;2.58;;;16.60;65.70;;;;;;10459940;28;20025;-57
2020/12/03 12:35:38;;;;;;;3.13;2.22;;;16.60;66.00;;;;;;10464387;28;20106;-57
2020/12/03 12:40:39;;;;;;;3.70;2.45;;;16.60;65.80;;;;;;10479209;28;20124;-58
2020/12/03 12:45:40;;;;;;;3.67;2.47;;;16.60;65.80;;;;;;10478998;28;20024;-58
2020/12/03 12:50:41;;;;;;;2.95;1.83;;;16.60;65.70;;;;;;10479813;28;20104;-57
2020/12/03 12:55:42;;;;;;;4.18;1.80;;;16.60;65.60;;;;;;10474403;28;20502;-56
2020/12/03 13:00:43;;;;;;;3.00;1.73;;;16.70;65.60;;;;;;10461188;28;20377;-57
2020/12/03 13:05:43;;;;;;;3.22;2.10;;;16.70;65.50;;;;;;10477529;28;20025;-57
2020/12/03 13:10:44;;;;;;;2.15;1.42;;;16.60;65.60;;;;;;10456547;28;20033;-56
2020/12/03 13:15:46;;;;;;;2.53;1.55;;;16.50;65.80;;;;;;10454486;28;20053;-57
2020/12/03 13:20:48;;;;;;;2.75;1.77;;;16.50;66.00;;;;;;10454541;28;20115;-57
2020/12/03 13:25:49;;;;;;;3.17;1.60;;;16.50;66.10;;;;;;10454367;28;20017;-57
2020/12/03 13:30:50;;;;;;;3.55;1.95;;;16.50;65.90;;;;;;10454331;28;20039;-57
2020/12/03 13:35:50;;;;;;;2.80;1.85;;;16.50;65.90;;;;;;10454227;28;20057;-57
2020/12/03 13:40:51;;;;;;;2.15;1.48;;;16.60;65.60;;;;;;10472867;28;20031;-57
2020/12/03 13:45:52;;;;;;;3.10;1.65;;;16.60;65.50;;;;;;10483918;28;20112;-58
2020/12/03 13:50:53;;;;;;;3.03;1.50;;;16.70;65.30;;;;;;10468958;28;20028;-57
2020/12/03 13:55:54;;;;;;;2.22;1.35;;;16.70;65.30;;;;;;10467929;28;20078;-58
2020/12/03 14:00:55;;;;;;;3.53;1.67;;;16.70;65.20;;;;;;10465340;28;20108;-58
2020/12/03 14:05:55;;;;;;;3.35;2.22;;;16.70;65.10;;;;;;10459531;28;20021;-58
2020/12/03 14:10:56;;;;;;;3.17;1.58;;;16.70;65.20;;;;;;10456620;28;20061;-58
2020/12/03 14:15:57;;;;;;;2.42;1.55;;;16.60;65.30;;;;;;10464719;28;20508;-58
2020/12/03 14:20:57;;;;;;;3.30;1.83;;;16.60;65.30;;;;;;10464790;28;20031;-58
2020/12/03 14:25:58;;;;;;;4.07;1.80;;;16.70;65.20;;;;;;10464525;28;20041;-58
2020/12/03 14:30:59;;;;;;;2.78;1.60;;;16.70;65.10;;;;;;10463418;28;20036;-57
2020/12/03 14:36:00;;;;;;;3.00;1.70;;;16.70;65.10;;;;;;10461128;28;20055;-56
2020/12/03 14:41:00;;;;;;;3.92;1.83;;;16.70;65.10;;;;;;10490169;28;20055;-57
2020/12/03 14:46:01;;;;;;;3.55;1.65;;;16.70;65.50;;;;;;10488534;28;20576;-58
2020/12/03 14:51:04;;;;;;;2.35;1.50;;;16.70;65.60;;;;;;10480797;28;20112;-58
2020/12/03 14:56:06;;;;;;;2.95;1.88;;;16.70;64.80;;;;;;10475565;28;20021;-57
2020/12/03 15:01:07;;;;;;;2.47;1.40;;;16.70;64.80;;;;;;10469014;28;20377;-58
2020/12/03 15:06:08;;;;;;;2.72;1.65;;;16.70;64.70;;;;;;10464265;28;20033;-58
2020/12/03 15:11:10;;;;;;;2.63;1.70;;;16.80;64.70;;;;;;10473825;28;20025;-58
2020/12/03 15:16:11;;;;;;;2.53;1.25;;;16.70;64.70;;;;;;10458374;28;20025;-58
2020/12/03 15:21:11;;;;;;;2.38;1.77;;;16.80;64.70;;;;;;10458340;28;20021;-57
2020/12/03 15:26:13;;;;;;;1.95;1.33;;;16.70;64.70;;;;;;10457317;28;20036;-58
2020/12/03 15:31:13;;;;;;;1.90;1.23;;;16.70;64.60;;;;;;10458320;28;20032;-58
2020/12/03 15:36:14;;;;;;;2.20;1.45;;;16.80;64.50;;;;;;10457441;28;20500;-58
2020/12/03 15:41:15;;;;;;;2.53;1.00;;;16.80;64.60;;;;;;10464181;28;20033;-57
2020/12/03 15:46:15;;;;;;;2.38;1.25;;;16.80;64.50;;;;;;10457354;28;20025;-58
2020/12/03 15:51:16;;;;;;;2.45;1.60;;;16.70;64.50;;;;;;10457246;28;20032;-58
2020/12/03 15:56:17;;;;;;;2.58;1.60;;;16.70;64.40;;;;;;10456926;28;20039;-58
2020/12/03 16:01:17;;;;;;;2.88;1.20;;;16.80;64.40;;;;;;10455843;28;20377;-58
2020/12/03 16:06:18;;;;;;;2.05;1.20;;;16.70;64.40;;;;;;10457802;28;20457;-58
2020/12/03 16:11:19;;;;;;;2.40;1.13;;;16.80;64.30;;;;;;10454291;28;20435;-56
2020/12/03 16:16:20;;;;;;;2.28;1.30;;;16.70;64.40;;;;;;10450223;28;20100;-58
2020/12/03 16:21:21;;;;;;;2.42;1.20;;;16.80;64.50;;;;;;10455722;28;20032;-57
2020/12/03 16:26:22;;;;;;;2.60;1.38;;;16.80;64.50;;;;;;10470652;28;20032;-58
2020/12/03 16:31:38;;;;;;;1.90;1.25;;;16.80;64.60;;;;;;10447144;28;20025;-58
2020/12/03 16:36:41;;;;;;;1.10;0.98;;;16.70;64.60;;;;;;10454567;28;20493;-58
2020/12/03 16:41:44;;;;;;;2.22;1.23;;;16.70;64.80;;;;;;10446891;28;20465;-57
2020/12/03 16:46:44;;;;;;;4.40;1.10;;;16.70;65.00;;;;;;10452085;28;20461;-57
2020/12/03 16:51:56;;;;;;;3.42;1.40;;;16.60;65.10;;;;;;10451888;28;20135;-57
2020/12/03 16:56:57;;;;;;;1.85;1.42;;;16.70;65.00;;;;;;10455007;28;20025;-58
2020/12/03 17:01:58;;;;;;;1.80;1.23;;;16.70;64.80;;;;;;10452279;28;20098;-58
2020/12/03 17:06:59;;;;;;;2.00;1.02;;;16.60;64.90;;;;;;10455075;28;20113;-58
2020/12/03 17:11:59;;;;;;;6.70;2.03;;;16.70;64.80;;;;;;10442941;28;20029;-58
2020/12/03 17:17:00;;;;;;;4.80;1.60;;;16.60;64.50;;;;;;10459756;28;20033;-59
2020/12/03 17:22:01;;;;;;;5.15;2.17;;;16.70;63.70;;;;;;10475656;28;20132;-58
2020/12/03 17:27:02;;;;;;;8.57;2.17;;;16.80;63.40;;;;;;10466221;28;20112;-58
2020/12/03 17:32:02;;;;;;;19.92;2.88;;;16.80;65.00;;;;;;10456024;28;20351;-58
2020/12/03 17:37:06;;;;;;;9.40;2.35;;;16.80;67.10;;;;;;10465347;28;20055;-57
2020/12/03 17:42:08;;;;;;;4.53;1.80;;;16.90;67.40;;;;;;10465944;28;20018;-57
2020/12/03 17:47:09;;;;;;;4.97;2.28;;;16.90;67.10;;;;;;10472256;28;20110;-58
2020/12/03 17:52:11;;;;;;;4.93;2.20;;;16.90;67.60;;;;;;10476263;28;20024;-58
2020/12/03 17:57:12;;;;;;;7.40;2.17;;;16.80;67.90;;;;;;10458394;28;20480;-58
2020/12/03 18:02:13;;;;;;;7.55;2.35;;;16.80;67.60;;;;;;10467493;28;20757;-58
2020/12/03 18:07:14;;;;;;;8.75;1.85;;;16.70;67.50;;;;;;10463204;28;20040;-58
2020/12/03 18:12:15;;;;;;;7.25;2.30;;;16.60;67.60;;;;;;10454322;28;20440;-57
2020/12/03 18:17:16;;;;;;;7.50;2.60;;;16.50;67.60;;;;;;10468180;28;20433;-58
2020/12/03 18:22:17;;;;;;;11.43;2.33;;;16.50;68.30;;;;;;10452128;28;20037;-58
2020/12/03 18:27:18;;;;;;;12.13;1.73;;;16.40;67.60;;;;;;10444525;28;20033;-61
2020/12/03 18:32:19;;;;;;;5.93;1.42;;;16.40;67.60;;;;;;10463025;28;20033;-57
2020/12/03 18:37:20;;;;;;;6.90;2.45;;;16.40;67.30;;;;;;10469606;28;20033;-57
2020/12/03 18:42:27;;;;;;;5.15;1.52;;;16.50;67.00;;;;;;10443582;28;20053;-57
2020/12/03 18:47:28;;;;;;;4.85;1.50;;;16.50;66.90;;;;;;10443561;28;20057;-58
2020/12/03 18:52:29;;;;;;;3.78;1.85;;;16.60;66.80;;;;;;10429238;28;20120;-57
2020/12/03 18:57:30;;;;;;;7.05;2.08;;;16.50;67.00;;;;;;10451961;28;20041;-59
2020/12/03 19:02:31;;;;;;;4.90;1.70;;;16.60;67.00;;;;;;10450128;28;20025;-57
2020/12/03 19:07:31;;;;;;;6.75;1.70;;;17.10;65.20;;;;;;10440428;28;20034;-56
2020/12/03 19:12:32;;;;;;;4.68;1.80;;;17.60;63.60;;;;;;10442287;28;20110;-57
2020/12/03 19:17:33;;;;;;;14.10;1.75;;;17.90;63.10;;;;;;10438590;28;20081;-57
2020/12/03 19:22:34;;;;;;;4.35;1.23;;;18.00;62.60;;;;;;10468634;28;20025;-57
2020/12/03 19:27:35;;;;;;;2.58;1.17;;;18.20;62.30;;;;;;10457444;28;20025;-57
2020/12/03 19:32:40;;;;;;;2.53;1.00;;;18.30;62.10;;;;;;10459129;28;20045;-57
2020/12/03 19:37:41;;;;;;;3.65;1.30;;;18.40;61.70;;;;;;10463242;28;20052;-57
2020/12/03 19:42:41;;;;;;;1.75;0.90;;;18.50;61.40;;;;;;10464188;28;20028;-57
2020/12/03 19:47:42;;;;;;;3.05;1.45;;;18.50;61.60;;;;;;10467575;28;20135;-58
2020/12/03 19:52:43;;;;;;;2.75;1.35;;;18.60;61.60;;;;;;10492932;28;20108;-58
2020/12/03 19:57:44;;;;;;;2.53;1.13;;;18.60;61.70;;;;;;10466912;28;20027;-58
2020/12/03 20:02:44;;;;;;;2.55;1.10;;;18.60;61.70;;;;;;10458911;28;20373;-57
2020/12/03 20:07:45;;;;;;;4.05;1.27;;;18.50;62.10;;;;;;10458455;28;20032;-57
2020/12/03 20:12:46;;;;;;;3.28;1.30;;;18.30;62.60;;;;;;10446360;28;20592;-57
2020/12/03 20:17:46;;;;;;;1.45;0.80;;;18.10;63.00;;;;;;10453734;28;20126;-57
2020/12/03 20:22:47;;;;;;;4.65;1.35;;;18.00;63.50;;;;;;10466963;28;20568;-58
2020/12/03 20:27:48;;;;;;;4.15;1.50;;;17.80;64.20;;;;;;10461051;28;20107;-57
2020/12/03 20:32:48;;;;;;;3.92;1.40;;;17.70;64.80;;;;;;10456199;28;20103;-57
2020/12/03 20:37:49;;;;;;;4.53;1.23;;;17.50;65.10;;;;;;10457751;28;20378;-58
2020/12/03 20:42:50;;;;;;;2.63;1.20;;;17.30;65.30;;;;;;10464658;28;20037;-57
2020/12/03 20:47:51;;;;;;;3.08;1.42;;;17.20;65.60;;;;;;10465084;28;20053;-57
2020/12/03 20:52:52;;;;;;;2.22;1.42;;;17.10;65.90;;;;;;10455389;28;20032;-57
2020/12/03 20:57:53;;;;;;;2.97;1.40;;;17.00;66.10;;;;;;10465782;28;20037;-57
2020/12/03 21:02:54;;;;;;;2.65;1.00;;;16.80;66.20;;;;;;10464768;28;20021;-58
2020/12/03 21:07:54;;;;;;;2.33;1.50;;;16.80;66.40;;;;;;10475799;28;20040;-57
2020/12/03 21:12:55;;;;;;;1.92;0.90;;;16.70;66.50;;;;;;10455220;28;20112;-57
2020/12/03 21:17:56;;;;;;;2.00;1.10;;;16.60;66.60;;;;;;10454673;28;20064;-57
2020/12/03 21:22:56;;;;;;;2.40;1.38;;;16.50;66.60;;;;;;10457113;28;20039;-57
2020/12/03 21:27:58;;;;;;;3.13;1.38;;;16.50;66.70;;;;;;10461460;28;20029;-57
2020/12/03 21:33:03;;;;;;;1.83;1.00;;;16.40;66.80;;;;;;10460460;28;20025;-57
2020/12/03 21:38:03;;;;;;;3.13;1.38;;;16.40;66.90;;;;;;10462003;28;20087;-58
2020/12/03 21:43:04;;;;;;;2.42;1.38;;;16.40;67.00;;;;;;10467607;28;20033;-57
2020/12/03 21:48:05;;;;;;;2.92;1.33;;;16.30;67.00;;;;;;10462372;28;20029;-58
2020/12/03 21:53:06;;;;;;;2.17;1.17;;;16.30;67.00;;;;;;10456671;28;20033;-57
2020/12/03 21:58:06;;;;;;;2.20;1.30;;;16.20;66.90;;;;;;10461534;28;20444;-57
2020/12/03 22:03:07;;;;;;;2.90;1.52;;;16.10;66.80;;;;;;10455030;28;20064;-58
2020/12/03 22:08:07;;;;;;;1.88;1.40;;;16.10;67.00;;;;;;10461674;28;20056;-58
2020/12/03 22:13:08;;;;;;;2.33;1.08;;;16.10;66.90;;;;;;10460583;28;20104;-57
2020/12/03 22:18:09;;;;;;;2.00;1.27;;;16.00;66.90;;;;;;10460916;28;20119;-58
2020/12/03 22:23:10;;;;;;;2.35;1.27;;;16.00;66.80;;;;;;10457434;28;20056;-58
2020/12/03 22:28:10;;;;;;;2.58;1.52;;;16.00;66.90;;;;;;10460670;28;20033;-57
2020/12/03 22:33:11;;;;;;;1.60;1.10;;;15.90;67.00;;;;;;10453920;28;20366;-57
2020/12/03 22:38:12;;;;;;;1.73;1.17;;;15.90;66.70;;;;;;10475450;28;20420;-57
2020/12/03 22:43:12;;;;;;;1.95;1.40;;;15.90;66.90;;;;;;10462857;28;20112;-58
2020/12/03 22:48:13;;;;;;;1.75;1.13;;;15.80;66.80;;;;;;10459115;28;20025;-57
2020/12/03 22:53:14;;;;;;;2.33;1.63;;;15.80;66.90;;;;;;10458611;28;20400;-56
2020/12/03 22:58:14;;;;;;;2.15;1.27;;;15.80;66.90;;;;;;10459190;28;20040;-56
2020/12/03 23:03:15;;;;;;;1.75;1.27;;;15.80;66.90;;;;;;10450343;28;20539;-57
2020/12/03 23:08:16;;;;;;;2.42;1.48;;;15.70;66.90;;;;;;10447369;28;20032;-57
2020/12/03 23:13:17;;;;;;;1.83;0.95;;;15.70;66.80;;;;;;10446472;28;20025;-57
2020/12/03 23:18:18;;;;;;;1.70;1.00;;;15.70;66.80;;;;;;10474455;28;20079;-56
2020/12/03 23:23:19;;;;;;;2.42;1.50;;;15.70;66.80;;;;;;10469489;28;20119;-57
2020/12/03 23:28:19;;;;;;;2.28;1.40;;;15.60;66.80;;;;;;10458365;28;20048;-57
2020/12/03 23:33:20;;;;;;;1.88;1.45;;;15.60;66.80;;;;;;10454842;28;20455;-57
2020/12/03 23:38:21;;;;;;;1.70;1.30;;;15.60;66.80;;;;;;10457601;28;20128;-58
2020/12/03 23:43:21;;;;;;;2.28;1.30;;;15.60;66.80;;;;;;10461792;28;20040;-57
2020/12/03 23:48:22;;;;;;;1.98;1.33;;;15.60;66.70;;;;;;10457158;28;20029;-57
2020/12/03 23:53:23;;;;;;;1.60;1.08;;;15.50;66.60;;;;;;10456151;28;20138;-57
2020/12/03 23:58:23;;;;;;;1.52;1.10;;;15.50;66.60;;;;;;10454434;28;20039;-57
